Time;durP1;ratioP1;P1;durP2;ratioP2;P2;SDS_P1;SDS_P2;PMS_P1;PMS_P2;Temp;Humidity;BMP_temperature;BMP_pressure;BME280_temperature;BME280_humidity;BME280_pressure;Samples;Min_cycle;Max_cycle;Signal;HPM_P1;HPM_P2
2023/10/06 00:00:46;;;;;;;6.33;3.00;;;;;;;;;;5085387;28;20467;-79
2023/10/06 00:03:14;;;;;;;4.87;3.13;;;;;;;;;;5089401;28;20559;-79
2023/10/06 00:05:41;;;;;;;6.70;4.30;;;;;;;;;;5088016;28;20460;-78
2023/10/06 00:08:10;;;;;;;6.00;4.10;;;;;;;;;;5086829;28;20448;-78
2023/10/06 00:10:44;;;;;;;8.67;4.60;;;;;;;;;;5085103;28;20448;-78
2023/10/06 00:13:18;;;;;;;6.20;4.87;;;;;;;;;;5082739;28;20856;-77
2023/10/06 00:15:49;;;;;;;8.00;5.67;;;;;;;;;;5081275;28;20451;-78
2023/10/06 00:18:19;;;;;;;10.53;6.17;;;;;;;;;;5085851;28;20491;-79
2023/10/06 00:20:48;;;;;;;7.60;5.77;;;;;;;;;;5088478;28;20490;-78
2023/10/06 00:23:21;;;;;;;8.83;5.80;;;;;;;;;;5084184;28;20776;-77
2023/10/06 00:25:51;;;;;;;7.90;5.87;;;;;;;;;;5084524;28;20535;-78
2023/10/06 00:28:21;;;;;;;8.00;6.10;;;;;;;;;;5082716;28;20506;-77
2023/10/06 00:30:55;;;;;;;10.43;7.87;;;;;;;;;;5084040;28;20444;-78
2023/10/06 00:33:27;;;;;;;13.20;8.13;;;;;;;;;;5082099;28;20456;-78
2023/10/06 00:35:55;;;;;;;17.20;7.43;;;;;;;;;;5083466;28;20448;-78
2023/10/06 00:38:23;;;;;;;12.20;7.10;;;;;;;;;;5085078;28;20480;-79
2023/10/06 00:40:56;;;;;;;10.10;7.23;;;;;;;;;;5089626;28;20451;-78
2023/10/06 00:43:34;;;;;;;14.23;9.47;;;;;;;;;;5088313;28;20785;-78
2023/10/06 00:46:06;;;;;;;12.53;8.00;;;;;;;;;;5088325;28;20477;-78
2023/10/06 00:48:34;;;;;;;12.33;7.90;;;;;;;;;;5083634;28;20455;-77
2023/10/06 00:51:04;;;;;;;15.13;8.53;;;;;;;;;;5083112;28;20741;-78
2023/10/06 00:53:32;;;;;;;12.67;9.90;;;;;;;;;;5081812;28;20460;-78
2023/10/06 00:56:10;;;;;;;12.00;9.27;;;;;;;;;;5083138;28;20463;-78
2023/10/06 00:58:41;;;;;;;12.87;10.17;;;;;;;;;;5082901;28;20490;-78
2023/10/06 01:01:09;;;;;;;13.90;9.90;;;;;;;;;;5084394;28;20457;-78
2023/10/06 01:03:39;;;;;;;15.30;10.23;;;;;;;;;;5086575;28;20947;-78
2023/10/06 01:06:11;;;;;;;15.53;10.47;;;;;;;;;;5085688;28;20452;-78
2023/10/06 01:08:39;;;;;;;17.27;11.67;;;;;;;;;;5086142;28;20864;-78
2023/10/06 01:11:15;;;;;;;27.83;11.10;;;;;;;;;;5088261;28;20440;-79
2023/10/06 01:13:55;;;;;;;14.43;10.60;;;;;;;;;;5090539;28;20440;-79
2023/10/06 01:16:31;;;;;;;22.53;10.90;;;;;;;;;;5085628;28;20464;-78
2023/10/06 01:19:14;;;;;;;17.20;12.53;;;;;;;;;;5090072;28;20499;-79
2023/10/06 01:21:41;;;;;;;19.40;12.30;;;;;;;;;;5088904;28;20445;-78
2023/10/06 01:24:13;;;;;;;17.13;11.37;;;;;;;;;;5088153;28;20489;-77
2023/10/06 01:26:42;;;;;;;15.93;10.43;;;;;;;;;;5086864;28;20880;-78
2023/10/06 01:29:13;;;;;;;16.87;10.70;;;;;;;;;;5087078;28;20449;-78
2023/10/06 01:31:41;;;;;;;13.67;11.20;;;;;;;;;;5088377;28;20455;-78
2023/10/06 01:34:10;;;;;;;13.03;9.73;;;;;;;;;;5088628;28;20452;-79
2023/10/06 01:36:38;;;;;;;14.80;10.90;;;;;;;;;;5088463;28;20456;-79
2023/10/06 01:39:15;;;;;;;16.43;10.87;;;;;;;;;;5086468;28;20468;-81
2023/10/06 01:41:47;;;;;;;17.73;10.43;;;;;;;;;;5086844;28;20452;-79
2023/10/06 01:44:15;;;;;;;11.60;10.10;;;;;;;;;;5086839;28;20507;-78
2023/10/06 01:46:43;;;;;;;16.77;10.30;;;;;;;;;;5086959;28;20460;-79
2023/10/06 01:49:11;;;;;;;16.60;9.70;;;;;;;;;;5087690;28;20525;-79
2023/10/06 01:51:39;;;;;;;15.20;8.73;;;;;;;;;;5087922;28;20456;-79
2023/10/06 01:54:11;;;;;;;16.73;8.60;;;;;;;;;;5087205;28;20467;-79
2023/10/06 01:56:40;;;;;;;15.07;8.97;;;;;;;;;;5087768;28;20500;-79
2023/10/06 01:59:10;;;;;;;13.20;8.87;;;;;;;;;;5087801;28;20479;-80
2023/10/06 02:01:39;;;;;;;13.20;7.47;;;;;;;;;;5085437;28;20456;-78
2023/10/06 02:04:10;;;;;;;13.30;9.50;;;;;;;;;;5084751;28;20488;-78
2023/10/06 02:06:41;;;;;;;13.60;8.83;;;;;;;;;;5083431;28;20460;-78
2023/10/06 02:09:15;;;;;;;15.30;9.23;;;;;;;;;;5085564;28;20477;-78
2023/10/06 02:11:42;;;;;;;15.73;8.70;;;;;;;;;;5084503;28;20452;-77
2023/10/06 02:14:13;;;;;;;14.90;9.73;;;;;;;;;;5084163;28;20484;-78
2023/10/06 02:16:44;;;;;;;22.30;9.97;;;;;;;;;;5081306;28;20487;-78
2023/10/06 02:19:15;;;;;;;16.93;8.93;;;;;;;;;;5082622;28;20449;-77
2023/10/06 02:21:44;;;;;;;15.53;9.53;;;;;;;;;;5084661;28;20463;-77
2023/10/06 02:24:16;;;;;;;18.80;9.20;;;;;;;;;;5075398;28;20491;-77
2023/10/06 02:26:48;;;;;;;16.77;9.93;;;;;;;;;;5076943;28;20455;-77
2023/10/06 02:29:22;;;;;;;16.80;9.83;;;;;;;;;;5083850;28;20868;-78
2023/10/06 02:31:50;;;;;;;13.80;9.37;;;;;;;;;;5083253;28;20460;-77
2023/10/06 02:34:27;;;;;;;15.23;9.50;;;;;;;;;;5085762;28;20543;-78
2023/10/06 02:36:56;;;;;;;18.50;10.30;;;;;;;;;;5085718;28;20460;-79
2023/10/06 02:39:33;;;;;;;14.37;9.90;;;;;;;;;;5084752;28;20508;-77
2023/10/06 02:42:08;;;;;;;19.13;10.63;;;;;;;;;;5077347;28;20448;-77
2023/10/06 02:44:40;;;;;;;15.20;10.57;;;;;;;;;;5077308;28;20492;-77
2023/10/06 02:47:09;;;;;;;18.70;11.10;;;;;;;;;;5083335;28;20486;-79
2023/10/06 02:49:38;;;;;;;15.40;10.37;;;;;;;;;;5086205;28;20794;-78
2023/10/06 02:52:13;;;;;;;18.80;11.27;;;;;;;;;;5086939;28;20461;-78
2023/10/06 02:54:47;;;;;;;24.63;10.63;;;;;;;;;;5085265;28;20444;-78
2023/10/06 02:57:20;;;;;;;18.73;11.23;;;;;;;;;;5086234;28;20456;-78
2023/10/06 02:59:49;;;;;;;17.90;11.20;;;;;;;;;;5088369;28;20795;-79
2023/10/06 03:02:16;;;;;;;19.73;11.80;;;;;;;;;;5082975;28;20522;-78
2023/10/06 03:04:45;;;;;;;15.37;11.10;;;;;;;;;;5084132;28;20522;-78
2023/10/06 03:07:14;;;;;;;13.30;10.77;;;;;;;;;;5089090;28;20459;-78
2023/10/06 03:09:46;;;;;;;14.40;10.97;;;;;;;;;;5088890;28;20518;-79
2023/10/06 03:12:15;;;;;;;14.00;10.80;;;;;;;;;;5084349;28;20448;-78
2023/10/06 03:14:43;;;;;;;15.80;11.30;;;;;;;;;;5083594;28;20460;-78
2023/10/06 03:17:13;;;;;;;19.30;11.10;;;;;;;;;;5084858;28;20676;-78
2023/10/06 03:19:41;;;;;;;20.70;11.73;;;;;;;;;;5083739;28;20456;-77
2023/10/06 03:22:09;;;;;;;14.17;10.93;;;;;;;;;;5088494;28;20464;-78
2023/10/06 03:24:44;;;;;;;14.30;10.70;;;;;;;;;;5092935;28;20842;-77
2023/10/06 03:27:14;;;;;;;16.67;11.33;;;;;;;;;;5093515;28;20482;-78
2023/10/06 03:29:54;;;;;;;14.53;11.40;;;;;;;;;;5092854;28;20479;-80
2023/10/06 03:32:32;;;;;;;13.90;9.67;;;;;;;;;;5086203;28;20452;-78
2023/10/06 03:35:08;;;;;;;15.37;10.63;;;;;;;;;;5084422;28;20479;-77
2023/10/06 03:37:44;;;;;;;14.63;11.03;;;;;;;;;;5082851;28;20491;-78
2023/10/06 03:40:22;;;;;;;15.47;11.20;;;;;;;;;;5084273;28;20898;-79
2023/10/06 03:42:50;;;;;;;17.53;13.37;;;;;;;;;;5081332;28;20456;-79
2023/10/06 03:45:27;;;;;;;13.87;10.00;;;;;;;;;;5083265;28;20480;-79
2023/10/06 03:48:08;;;;;;;18.40;10.43;;;;;;;;;;5085128;28;20514;-78
2023/10/06 03:50:38;;;;;;;14.47;10.50;;;;;;;;;;5084416;28;20474;-77
2023/10/06 03:53:07;;;;;;;16.93;10.63;;;;;;;;;;5081179;28;20756;-78
2023/10/06 03:55:39;;;;;;;16.10;9.70;;;;;;;;;;5077796;28;20756;-78
2023/10/06 03:58:06;;;;;;;16.40;11.07;;;;;;;;;;5077253;28;20827;-77
2023/10/06 04:00:38;;;;;;;15.10;9.60;;;;;;;;;;5078766;28;20448;-77
2023/10/06 04:03:09;;;;;;;13.90;10.60;;;;;;;;;;5078119;28;20552;-79
2023/10/06 04:05:38;;;;;;;12.93;9.23;;;;;;;;;;5078364;28;20555;-78
2023/10/06 04:08:12;;;;;;;15.10;9.10;;;;;;;;;;5075444;28;20587;-77
2023/10/06 04:10:40;;;;;;;12.97;9.20;;;;;;;;;;5077932;28;20899;-79
2023/10/06 04:13:09;;;;;;;15.20;8.33;;;;;;;;;;5079535;28;20470;-78
2023/10/06 04:15:38;;;;;;;14.07;9.30;;;;;;;;;;5081042;28;20470;-77
2023/10/06 04:18:10;;;;;;;19.10;8.57;;;;;;;;;;5081049;28;20740;-77
2023/10/06 04:20:39;;;;;;;14.70;8.50;;;;;;;;;;5083100;28;20548;-78
2023/10/06 04:23:07;;;;;;;15.20;9.80;;;;;;;;;;5084786;28;20442;-78
2023/10/06 04:25:37;;;;;;;16.80;8.70;;;;;;;;;;5084799;28;20487;-78
2023/10/06 04:28:06;;;;;;;13.23;8.30;;;;;;;;;;5085259;28;20449;-78
2023/10/06 04:30:35;;;;;;;12.87;8.50;;;;;;;;;;5084303;28;20463;-78
2023/10/06 04:33:03;;;;;;;11.40;7.30;;;;;;;;;;5078320;28;20783;-77
2023/10/06 04:35:32;;;;;;;17.47;8.13;;;;;;;;;;5072718;28;20547;-77
2023/10/06 04:38:00;;;;;;;8.43;6.77;;;;;;;;;;5074334;28;20453;-78
2023/10/06 04:40:28;;;;;;;12.47;7.20;;;;;;;;;;5083433;28;20456;-77
2023/10/06 04:42:57;;;;;;;11.33;6.90;;;;;;;;;;5078287;28;20452;-78
2023/10/06 04:45:24;;;;;;;11.30;7.00;;;;;;;;;;5085275;28;20471;-77
2023/10/06 04:47:55;;;;;;;11.30;7.37;;;;;;;;;;5078398;28;20480;-77
2023/10/06 04:50:23;;;;;;;10.30;6.20;;;;;;;;;;5080305;28;20744;-77
2023/10/06 04:52:54;;;;;;;9.23;7.07;;;;;;;;;;5083771;28;20456;-77
2023/10/06 04:55:22;;;;;;;14.13;7.47;;;;;;;;;;5084694;28;20461;-78
2023/10/06 04:57:49;;;;;;;17.23;7.73;;;;;;;;;;5085062;28;20532;-78
2023/10/06 05:00:20;;;;;;;12.83;6.40;;;;;;;;;;5086642;28;20667;-78
2023/10/06 05:02:50;;;;;;;7.73;5.47;;;;;;;;;;5086742;28;20516;-78
2023/10/06 05:05:19;;;;;;;8.90;5.53;;;;;;;;;;5086502;28;20484;-78
2023/10/06 05:07:47;;;;;;;10.40;6.10;;;;;;;;;;5084278;28;20532;-78
2023/10/06 05:10:21;;;;;;;8.80;5.53;;;;;;;;;;5082129;28;20547;-78
2023/10/06 05:12:48;;;;;;;14.13;6.37;;;;;;;;;;5074535;28;20457;-77
2023/10/06 05:15:23;;;;;;;15.30;6.70;;;;;;;;;;5080703;28;20444;-78
2023/10/06 05:17:55;;;;;;;11.23;5.73;;;;;;;;;;5079641;28;20474;-77
2023/10/06 05:20:24;;;;;;;7.17;5.23;;;;;;;;;;5078626;28;20484;-77
2023/10/06 05:22:52;;;;;;;11.20;5.60;;;;;;;;;;5071653;28;20459;-77
2023/10/06 05:25:22;;;;;;;13.33;6.00;;;;;;;;;;5077875;28;20481;-78
2023/10/06 05:27:55;;;;;;;9.83;6.53;;;;;;;;;;5080662;28;20527;-78
2023/10/06 05:30:22;;;;;;;12.20;5.37;;;;;;;;;;5080792;28;20440;-77
2023/10/06 05:32:50;;;;;;;9.93;5.93;;;;;;;;;;5072564;28;20456;-77
2023/10/06 05:35:20;;;;;;;9.23;6.30;;;;;;;;;;5069764;28;20448;-77
2023/10/06 05:37:48;;;;;;;15.03;6.63;;;;;;;;;;5068427;28;20452;-77
2023/10/06 05:40:20;;;;;;;10.83;6.90;;;;;;;;;;5069406;28;20733;-78
2023/10/06 05:42:50;;;;;;;14.30;4.90;;;;;;;;;;5076356;28;20485;-78
2023/10/06 05:45:18;;;;;;;14.63;6.50;;;;;;;;;;5073783;28;20547;-78
2023/10/06 05:47:46;;;;;;;13.03;6.33;;;;;;;;;;5074503;28;20641;-78
2023/10/06 05:50:18;;;;;;;10.03;5.70;;;;;;;;;;5075365;28;20694;-77
2023/10/06 05:52:51;;;;;;;10.87;5.60;;;;;;;;;;5064494;28;20460;-77
2023/10/06 05:55:22;;;;;;;12.40;6.07;;;;;;;;;;5064966;28;20586;-77
2023/10/06 05:57:55;;;;;;;10.13;5.40;;;;;;;;;;5066050;28;20453;-77
2023/10/06 06:00:25;;;;;;;14.30;5.47;;;;;;;;;;5070883;28;20461;-78
2023/10/06 06:02:53;;;;;;;10.20;5.70;;;;;;;;;;5080216;28;20670;-78
2023/10/06 06:05:22;;;;;;;8.67;5.33;;;;;;;;;;5079786;28;20496;-78
2023/10/06 06:07:51;;;;;;;14.83;5.93;;;;;;;;;;5076194;28;20904;-78
2023/10/06 06:10:19;;;;;;;9.63;5.00;;;;;;;;;;5058283;28;20469;-77
2023/10/06 06:12:47;;;;;;;16.10;5.57;;;;;;;;;;5068831;28;20449;-77
2023/10/06 06:15:16;;;;;;;11.23;6.80;;;;;;;;;;5058763;28;20452;-76
2023/10/06 06:17:44;;;;;;;9.70;5.17;;;;;;;;;;5051855;28;20568;-76
2023/10/06 06:20:18;;;;;;;11.77;5.70;;;;;;;;;;5053264;28;21079;-78
2023/10/06 06:22:55;;;;;;;7.60;5.10;;;;;;;;;;5066055;28;20580;-78
2023/10/06 06:25:22;;;;;;;13.40;5.73;;;;;;;;;;5082196;28;20547;-79
2023/10/06 06:27:50;;;;;;;13.40;6.17;;;;;;;;;;5070482;28;20857;-77
2023/10/06 06:30:19;;;;;;;12.20;6.30;;;;;;;;;;5079388;28;20952;-78
2023/10/06 06:32:49;;;;;;;8.10;5.20;;;;;;;;;;5072843;28;20445;-77
2023/10/06 06:35:19;;;;;;;9.43;4.83;;;;;;;;;;5075409;28;20448;-77
2023/10/06 06:37:50;;;;;;;9.00;5.00;;;;;;;;;;5073595;28;20453;-78
2023/10/06 06:40:19;;;;;;;10.93;4.83;;;;;;;;;;5077840;28;20447;-79
2023/10/06 06:42:49;;;;;;;11.20;5.10;;;;;;;;;;5080549;28;20963;-76
2023/10/06 06:45:24;;;;;;;12.33;6.10;;;;;;;;;;5085986;28;20520;-78
2023/10/06 06:47:52;;;;;;;8.90;6.30;;;;;;;;;;5081263;28;20472;-78
2023/10/06 06:50:31;;;;;;;10.33;5.70;;;;;;;;;;5081611;28;20461;-77
2023/10/06 06:52:59;;;;;;;8.33;5.67;;;;;;;;;;5076660;28;20453;-77
2023/10/06 06:55:27;;;;;;;10.60;5.17;;;;;;;;;;5079432;28;20518;-76
2023/10/06 06:57:57;;;;;;;9.20;5.13;;;;;;;;;;5075755;28;21022;-76
2023/10/06 07:00:27;;;;;;;9.40;4.87;;;;;;;;;;5079339;28;20436;-77
2023/10/06 07:02:56;;;;;;;10.40;5.10;;;;;;;;;;5080048;28;20452;-78
2023/10/06 07:05:24;;;;;;;12.17;5.57;;;;;;;;;;5075666;28;20485;-77
2023/10/06 07:07:52;;;;;;;10.17;4.60;;;;;;;;;;5075126;28;20458;-77
2023/10/06 07:10:25;;;;;;;7.17;4.30;;;;;;;;;;5083435;28;20942;-77
2023/10/06 07:12:53;;;;;;;11.20;5.00;;;;;;;;;;5085656;28;20456;-78
2023/10/06 07:15:23;;;;;;;8.40;4.60;;;;;;;;;;5090349;28;20840;-77
2023/10/06 07:17:53;;;;;;;10.27;4.43;;;;;;;;;;5094308;28;20452;-76
2023/10/06 07:20:23;;;;;;;8.93;5.00;;;;;;;;;;5103880;28;20462;-76
2023/10/06 07:22:53;;;;;;;7.20;4.40;;;;;;;;;;5104514;28;20571;-78
2023/10/06 07:25:23;;;;;;;11.63;4.60;;;;;;;;;;5102352;28;20491;-77
2023/10/06 07:27:52;;;;;;;13.03;4.93;;;;;;;;;;5105837;28;20562;-79
2023/10/06 07:30:22;;;;;;;7.17;3.60;;;;;;;;;;5103874;28;20466;-76
2023/10/06 07:32:54;;;;;;;9.13;4.57;;;;;;;;;;5101049;28;20479;-78
2023/10/06 07:35:30;;;;;;;8.57;4.13;;;;;;;;;;5091660;28;20444;-78
2023/10/06 07:38:03;;;;;;;9.80;3.40;;;;;;;;;;5089857;28;20479;-78
2023/10/06 07:40:54;;;;;;;10.67;3.93;;;;;;;;;;5092505;28;20474;-78
2023/10/06 07:43:27;;;;;;;5.27;3.27;;;;;;;;;;5088474;28;20522;-78
2023/10/06 07:46:00;;;;;;;8.87;3.60;;;;;;;;;;5091100;28;20487;-78
2023/10/06 07:48:36;;;;;;;12.00;8.30;;;;;;;;;;5090709;28;20440;-77
2023/10/06 07:51:13;;;;;;;10.87;2.87;;;;;;;;;;5074334;28;20456;-78
2023/10/06 07:53:48;;;;;;;7.37;3.30;;;;;;;;;;5093742;28;20459;-77
2023/10/06 07:56:26;;;;;;;6.33;3.40;;;;;;;;;;5089708;28;20448;-77
2023/10/06 07:58:58;;;;;;;5.20;2.73;;;;;;;;;;5082801;28;20775;-77
2023/10/06 08:01:35;;;;;;;7.60;3.40;;;;;;;;;;5065039;28;20508;-77
2023/10/06 08:04:05;;;;;;;6.10;3.23;;;;;;;;;;5087364;28;20776;-78
2023/10/06 08:06:57;;;;;;;5.70;2.77;;;;;;;;;;5089609;28;20488;-78
2023/10/06 08:09:32;;;;;;;6.60;2.83;;;;;;;;;;5104792;28;20462;-78
2023/10/06 08:12:13;;;;;;;6.80;4.03;;;;;;;;;;5107569;28;20443;-77
2023/10/06 08:14:50;;;;;;;8.37;3.17;;;;;;;;;;5104926;28;20603;-79
2023/10/06 08:20:57;;;;;;;8.07;3.80;;;;;;;;;;4970259;29;20493;-76
2023/10/06 08:23:35;;;;;;;6.17;3.23;;;;;;;;;;5089835;28;20468;-77
2023/10/06 08:29:20;;;;;;;8.17;3.20;;;;;;;;;;5094992;28;20564;-77
2023/10/06 08:31:53;;;;;;;13.57;3.20;;;;;;;;;;5111798;28;20471;-78
2023/10/06 08:34:27;;;;;;;7.37;2.80;;;;;;;;;;5105073;28;20435;-76
2023/10/06 08:37:11;;;;;;;6.13;3.17;;;;;;;;;;5108197;28;20447;-77
2023/10/06 08:42:40;;;;;;;6.60;2.67;;;;;;;;;;5083988;28;20522;-79
2023/10/06 08:45:11;;;;;;;9.40;3.30;;;;;;;;;;5090920;28;20468;-79
2023/10/06 08:47:45;;;;;;;7.93;2.93;;;;;;;;;;5089531;28;20482;-77
2023/10/06 08:50:22;;;;;;;11.10;3.73;;;;;;;;;;5088912;28;20452;-76
2023/10/06 08:55:46;;;;;;;6.90;3.30;;;;;;;;;;5086172;28;20459;-77
2023/10/06 08:58:17;;;;;;;11.10;2.50;;;;;;;;;;5087461;28;20476;-77
2023/10/06 09:00:46;;;;;;;5.63;1.90;;;;;;;;;;5082322;28;20528;-77
2023/10/06 09:03:14;;;;;;;6.40;3.30;;;;;;;;;;5073212;28;20441;-77
2023/10/06 09:05:42;;;;;;;6.37;2.70;;;;;;;;;;5078356;28;20587;-77
2023/10/06 09:08:10;;;;;;;6.87;3.10;;;;;;;;;;5097412;28;20454;-77
2023/10/06 09:10:40;;;;;;;6.67;2.60;;;;;;;;;;5099406;28;20494;-77
2023/10/06 09:13:10;;;;;;;8.97;3.87;;;;;;;;;;5096805;28;20447;-77
2023/10/06 09:15:40;;;;;;;7.60;2.77;;;;;;;;;;5092858;28;20492;-78
2023/10/06 09:18:19;;;;;;;7.50;3.00;;;;;;;;;;5086249;28;20459;-77
2023/10/06 09:20:47;;;;;;;5.30;2.43;;;;;;;;;;5089716;28;20732;-77
2023/10/06 09:23:30;;;;;;;7.37;2.97;;;;;;;;;;5075806;28;20448;-75
2023/10/06 09:26:04;;;;;;;4.83;2.90;;;;;;;;;;5083917;28;20546;-78
2023/10/06 09:28:36;;;;;;;11.53;3.30;;;;;;;;;;5090760;28;20825;-77
2023/10/06 09:31:05;;;;;;;11.13;2.37;;;;;;;;;;5081953;28;20463;-78
2023/10/06 09:33:44;;;;;;;5.67;2.60;;;;;;;;;;5101160;28;20447;-78
2023/10/06 09:36:16;;;;;;;7.03;2.77;;;;;;;;;;5093861;28;20908;-76
2023/10/06 09:38:45;;;;;;;9.30;2.73;;;;;;;;;;5095140;28;20697;-76
2023/10/06 09:41:26;;;;;;;5.63;2.67;;;;;;;;;;5102359;28;20448;-77
2023/10/06 09:43:55;;;;;;;13.63;3.27;;;;;;;;;;5097634;28;20491;-78
2023/10/06 09:46:23;;;;;;;7.20;3.10;;;;;;;;;;5102369;28;20759;-78
2023/10/06 09:48:52;;;;;;;7.17;4.10;;;;;;;;;;5103696;28;20447;-79
2023/10/06 09:51:23;;;;;;;6.17;2.50;;;;;;;;;;5096679;28;20531;-78
2023/10/06 09:53:50;;;;;;;8.43;3.10;;;;;;;;;;5104310;28;20468;-77
2023/10/06 09:56:20;;;;;;;8.50;4.37;;;;;;;;;;5102451;28;20447;-78
2023/10/06 09:58:49;;;;;;;6.40;2.57;;;;;;;;;;5104358;28;20456;-78
2023/10/06 10:01:17;;;;;;;6.53;2.57;;;;;;;;;;5101945;28;21177;-76
2023/10/06 10:03:45;;;;;;;19.30;17.23;;;;;;;;;;5092960;28;20764;-78
2023/10/06 10:06:14;;;;;;;8.20;2.23;;;;;;;;;;5097715;28;21149;-78
2023/10/06 10:08:42;;;;;;;10.43;2.70;;;;;;;;;;5092415;28;20447;-77
2023/10/06 10:11:14;;;;;;;6.07;2.90;;;;;;;;;;5102379;28;20439;-79
2023/10/06 10:13:56;;;;;;;6.43;3.00;;;;;;;;;;5106382;28;20546;-78
2023/10/06 10:16:36;;;;;;;5.60;2.30;;;;;;;;;;5103281;28;20527;-78
2023/10/06 10:19:07;;;;;;;5.37;2.37;;;;;;;;;;5105209;28;20930;-79
2023/10/06 10:21:35;;;;;;;8.60;3.17;;;;;;;;;;5100351;28;20449;-78
2023/10/06 10:24:05;;;;;;;6.57;2.07;;;;;;;;;;5084791;28;20817;-79
2023/10/06 10:26:35;;;;;;;5.60;2.70;;;;;;;;;;5088114;28;20521;-77
2023/10/06 10:29:24;;;;;;;5.27;2.57;;;;;;;;;;5085329;28;20480;-77
2023/10/06 10:31:56;;;;;;;4.73;2.20;;;;;;;;;;5094091;28;20456;-78
2023/10/06 10:34:26;;;;;;;8.73;3.00;;;;;;;;;;5096636;28;20860;-77
2023/10/06 10:37:12;;;;;;;8.60;3.10;;;;;;;;;;5089881;28;20503;-78
2023/10/06 10:39:42;;;;;;;7.23;2.40;;;;;;;;;;5092850;28;20459;-78
2023/10/06 10:42:17;;;;;;;6.10;2.30;;;;;;;;;;5077954;28;20466;-75
2023/10/06 10:44:44;;;;;;;6.90;3.47;;;;;;;;;;5079619;28;20456;-78
2023/10/06 10:47:15;;;;;;;7.60;3.27;;;;;;;;;;5081441;28;20498;-77
2023/10/06 10:49:50;;;;;;;6.13;2.77;;;;;;;;;;5080091;28;20516;-78
2023/10/06 10:52:23;;;;;;;6.67;3.00;;;;;;;;;;5091163;28;20464;-79
2023/10/06 10:54:54;;;;;;;6.93;3.03;;;;;;;;;;5082087;28;20460;-77
2023/10/06 10:57:36;;;;;;;7.23;2.77;;;;;;;;;;5087351;28;20457;-77
2023/10/06 11:00:23;;;;;;;6.80;3.17;;;;;;;;;;5086404;28;20508;-78
2023/10/06 11:03:10;;;;;;;8.10;3.03;;;;;;;;;;5087238;28;20464;-77
2023/10/06 11:05:44;;;;;;;8.70;3.10;;;;;;;;;;5088297;28;20448;-76
2023/10/06 11:08:12;;;;;;;10.50;4.17;;;;;;;;;;5085120;28;20448;-76
2023/10/06 11:10:41;;;;;;;13.33;3.83;;;;;;;;;;5085859;28;20467;-77
2023/10/06 11:13:18;;;;;;;9.43;3.60;;;;;;;;;;5078990;28;20472;-76
2023/10/06 11:15:46;;;;;;;6.10;3.60;;;;;;;;;;5088293;28;20463;-76
2023/10/06 11:18:17;;;;;;;6.83;3.20;;;;;;;;;;5096065;28;20983;-79
2023/10/06 11:20:47;;;;;;;8.27;2.73;;;;;;;;;;5095226;28;20477;-77
2023/10/06 11:23:16;;;;;;;10.60;3.00;;;;;;;;;;5097250;28;20451;-77
2023/10/06 11:25:48;;;;;;;9.70;3.60;;;;;;;;;;5087691;28;20448;-76
2023/10/06 11:28:18;;;;;;;9.00;2.93;;;;;;;;;;5092149;28;20488;-76
2023/10/06 11:30:46;;;;;;;7.20;2.60;;;;;;;;;;5094357;28;20525;-77
2023/10/06 11:33:18;;;;;;;7.40;3.03;;;;;;;;;;5095934;28;20443;-78
2023/10/06 11:35:46;;;;;;;5.97;2.57;;;;;;;;;;5077871;28;20939;-76
2023/10/06 11:38:15;;;;;;;12.20;2.60;;;;;;;;;;5077297;28;20875;-77
2023/10/06 11:40:44;;;;;;;8.20;3.00;;;;;;;;;;5096406;28;20451;-78
2023/10/06 11:43:12;;;;;;;7.87;2.77;;;;;;;;;;5093750;28;20479;-77
2023/10/06 11:45:41;;;;;;;5.60;3.07;;;;;;;;;;5087378;28;20487;-76
2023/10/06 11:48:24;;;;;;;7.30;3.17;;;;;;;;;;5093020;28;20570;-78
2023/10/06 11:51:06;;;;;;;8.80;3.17;;;;;;;;;;5097454;28;20462;-76
2023/10/06 11:53:37;;;;;;;6.90;2.83;;;;;;;;;;5093405;28;20448;-76
2023/10/06 11:56:07;;;;;;;7.30;2.43;;;;;;;;;;5091944;28;20451;-77
2023/10/06 11:58:36;;;;;;;9.87;3.37;;;;;;;;;;5083428;28;20448;-76
2023/10/06 12:01:04;;;;;;;8.00;2.83;;;;;;;;;;5090062;28;20470;-77
2023/10/06 12:03:39;;;;;;;5.40;2.30;;;;;;;;;;5084378;28;20460;-75
2023/10/06 12:06:11;;;;;;;8.20;3.07;;;;;;;;;;5081298;28;20482;-75
2023/10/06 12:08:42;;;;;;;10.53;2.87;;;;;;;;;;5094603;28;20455;-77
2023/10/06 12:11:12;;;;;;;7.33;3.10;;;;;;;;;;5096603;28;20467;-77
2023/10/06 12:13:39;;;;;;;5.43;2.80;;;;;;;;;;5098558;28;20602;-77
2023/10/06 12:16:13;;;;;;;6.67;3.13;;;;;;;;;;5103864;28;20494;-79
2023/10/06 12:18:43;;;;;;;6.10;2.90;;;;;;;;;;5102091;28;20458;-77
2023/10/06 12:21:15;;;;;;;6.33;2.40;;;;;;;;;;5097463;28;20443;-76
2023/10/06 12:30:10;;;;;;;5.90;2.50;;;;;;;;;;5091751;28;20544;-77
2023/10/06 12:32:38;;;;;;;7.03;2.77;;;;;;;;;;5091829;28;20491;-77
2023/10/06 12:35:06;;;;;;;9.20;2.60;;;;;;;;;;5093772;28;20523;-78
2023/10/06 12:37:40;;;;;;;6.57;2.43;;;;;;;;;;5093632;28;20892;-76
2023/10/06 12:40:10;;;;;;;7.03;2.50;;;;;;;;;;5094803;28;20489;-78
2023/10/06 12:42:38;;;;;;;5.20;2.50;;;;;;;;;;5091033;28;20497;-78
2023/10/06 12:45:13;;;;;;;7.17;2.60;;;;;;;;;;5088624;28;20464;-78
2023/10/06 12:47:45;;;;;;;6.03;2.50;;;;;;;;;;5096297;28;21041;-78
2023/10/06 12:50:18;;;;;;;8.80;3.50;;;;;;;;;;5094418;28;20967;-78
2023/10/06 12:52:52;;;;;;;6.70;2.73;;;;;;;;;;5093189;28;20763;-76
2023/10/06 12:55:24;;;;;;;10.30;3.27;;;;;;;;;;5094051;28;20458;-77
2023/10/06 12:57:53;;;;;;;9.57;2.80;;;;;;;;;;5081082;28;20818;-77
2023/10/06 13:00:24;;;;;;;6.77;2.87;;;;;;;;;;5086061;28;20457;-76
2023/10/06 13:02:54;;;;;;;6.37;3.00;;;;;;;;;;5086398;28;20546;-77
2023/10/06 13:05:25;;;;;;;9.93;3.70;;;;;;;;;;5091860;28;20447;-79
2023/10/06 13:07:57;;;;;;;7.73;4.63;;;;;;;;;;5090582;28;20539;-77
2023/10/06 13:10:26;;;;;;;9.17;3.30;;;;;;;;;;5095856;28;20455;-78
2023/10/06 13:12:54;;;;;;;7.33;2.57;;;;;;;;;;5106864;28;20432;-79
2023/10/06 13:15:21;;;;;;;7.93;3.97;;;;;;;;;;5106529;28;20453;-78
2023/10/06 13:17:49;;;;;;;8.87;4.97;;;;;;;;;;5091028;28;20457;-78
2023/10/06 13:20:17;;;;;;;7.77;2.60;;;;;;;;;;5094604;28;20566;-79
2023/10/06 13:22:47;;;;;;;6.67;2.70;;;;;;;;;;5095533;28;20521;-77
2023/10/06 13:25:18;;;;;;;6.90;3.13;;;;;;;;;;5087842;28;20459;-79
2023/10/06 13:27:48;;;;;;;5.47;2.90;;;;;;;;;;5085176;28;20549;-78
2023/10/06 13:30:21;;;;;;;4.17;2.70;;;;;;;;;;5087029;28;20476;-77
2023/10/06 13:32:51;;;;;;;6.40;2.60;;;;;;;;;;5077940;28;20869;-78
2023/10/06 13:35:19;;;;;;;7.33;2.40;;;;;;;;;;5082452;28;20923;-77
2023/10/06 13:37:48;;;;;;;5.30;2.70;;;;;;;;;;5094434;28;20444;-78
2023/10/06 13:40:20;;;;;;;7.67;2.43;;;;;;;;;;5102350;28;20491;-78
2023/10/06 13:42:48;;;;;;;6.77;2.67;;;;;;;;;;5079728;28;20905;-77
2023/10/06 13:45:25;;;;;;;5.70;2.97;;;;;;;;;;5092804;28;20448;-78
2023/10/06 13:50:52;;;;;;;7.00;3.77;;;;;;;;;;5072969;28;20453;-78
2023/10/06 13:53:21;;;;;;;7.67;2.90;;;;;;;;;;5077267;28;20537;-78
2023/10/06 13:55:54;;;;;;;6.77;3.30;;;;;;;;;;5095197;28;20962;-77
2023/10/06 13:58:23;;;;;;;5.33;2.50;;;;;;;;;;5086876;28;20460;-77
2023/10/06 14:00:52;;;;;;;5.70;2.10;;;;;;;;;;5096444;28;20466;-79
2023/10/06 14:03:20;;;;;;;10.60;3.60;;;;;;;;;;5088107;28;20494;-79
2023/10/06 14:05:52;;;;;;;7.00;2.63;;;;;;;;;;5095278;28;20504;-77
2023/10/06 14:08:21;;;;;;;7.30;2.33;;;;;;;;;;5096276;28;20578;-76
2023/10/06 14:10:49;;;;;;;8.70;2.40;;;;;;;;;;5084642;28;20460;-78
2023/10/06 14:13:24;;;;;;;6.37;2.50;;;;;;;;;;5095944;28;20465;-78
2023/10/06 14:15:58;;;;;;;8.23;3.30;;;;;;;;;;5099856;28;20482;-77
2023/10/06 14:18:29;;;;;;;6.47;3.47;;;;;;;;;;5103471;28;20483;-79
2023/10/06 14:20:58;;;;;;;5.93;2.50;;;;;;;;;;5086533;28;20498;-77
2023/10/06 14:23:29;;;;;;;10.93;3.47;;;;;;;;;;5087335;28;20513;-78
2023/10/06 14:25:59;;;;;;;13.63;3.40;;;;;;;;;;5099809;28;20455;-77
2023/10/06 14:28:30;;;;;;;6.40;2.50;;;;;;;;;;5099341;28;20573;-77
2023/10/06 14:31:09;;;;;;;6.70;2.43;;;;;;;;;;5100054;28;20778;-78
2023/10/06 14:33:58;;;;;;;4.40;2.00;;;;;;;;;;5104019;28;20505;-79
2023/10/06 14:36:28;;;;;;;5.63;2.50;;;;;;;;;;5085485;28;20468;-79
2023/10/06 14:47:12;;;;;;;6.67;2.80;;;;;;;;;;5092337;28;20652;-78
2023/10/06 14:49:42;;;;;;;11.80;3.13;;;;;;;;;;5095226;28;20540;-78
2023/10/06 14:52:10;;;;;;;6.67;2.33;;;;;;;;;;5102837;28;20528;-77
2023/10/06 14:54:38;;;;;;;4.20;2.20;;;;;;;;;;5098255;28;20474;-77
2023/10/06 14:57:06;;;;;;;5.37;2.50;;;;;;;;;;5073815;28;20456;-76
2023/10/06 14:59:35;;;;;;;7.73;2.80;;;;;;;;;;5077940;28;20437;-78
2023/10/06 15:02:06;;;;;;;5.00;2.27;;;;;;;;;;5088875;28;20531;-78
2023/10/06 15:04:35;;;;;;;11.40;3.07;;;;;;;;;;5097238;28;20444;-79
2023/10/06 15:07:04;;;;;;;4.93;1.97;;;;;;;;;;5099208;28;20463;-78
2023/10/06 15:09:34;;;;;;;6.63;2.50;;;;;;;;;;5091965;28;20922;-78
2023/10/06 15:12:03;;;;;;;10.60;2.33;;;;;;;;;;5093409;28;20481;-77
2023/10/06 15:14:35;;;;;;;7.80;2.60;;;;;;;;;;5091298;28;20489;-78
2023/10/06 15:17:09;;;;;;;5.33;2.30;;;;;;;;;;5091875;28;20517;-77
2023/10/06 15:19:37;;;;;;;6.70;1.90;;;;;;;;;;5095978;28;20463;-77
2023/10/06 15:22:08;;;;;;;4.37;2.23;;;;;;;;;;5095562;28;20470;-77
2023/10/06 15:24:42;;;;;;;4.27;2.17;;;;;;;;;;5079162;28;20468;-77
2023/10/06 15:27:17;;;;;;;6.20;2.30;;;;;;;;;;5078951;28;20511;-77
2023/10/06 15:29:46;;;;;;;5.03;2.20;;;;;;;;;;5081102;28;20480;-75